createdAt,value
2022-08-08T00:02:29.972Z,88.90
2022-08-08T00:04:54.132Z,89.00
2022-08-08T00:07:38.259Z,89.20
2022-08-08T00:10:11.497Z,89.90
2022-08-08T00:13:03.467Z,90.20
2022-08-08T00:15:56.511Z,90.30
2022-08-08T00:18:35.597Z,90.30
2022-08-08T00:21:07.743Z,90.30
2022-08-08T00:23:51.244Z,90.30
2022-08-08T00:26:29.330Z,90.40
2022-08-08T00:29:08.033Z,90.40
2022-08-08T00:32:14.980Z,90.70
2022-08-08T00:35:04.131Z,90.80
2022-08-08T00:37:47.276Z,90.70
2022-08-08T00:41:09.171Z,91.00
2022-08-08T00:44:12.008Z,91.40
2022-08-08T00:47:14.138Z,91.60
2022-08-08T00:50:53.329Z,91.70
2022-08-08T00:53:57.156Z,91.70
2022-08-08T00:57:34.084Z,92.00
2022-08-08T01:00:10.849Z,91.80
2022-08-08T01:04:01.352Z,91.90
2022-08-08T01:06:49.046Z,91.90
2022-08-08T01:09:41.294Z,91.80
2022-08-08T01:13:00.453Z,91.70
2022-08-08T01:16:02.680Z,91.80
2022-08-08T01:19:52.204Z,92.00
2022-08-08T01:22:59.811Z,92.00
2022-08-08T01:26:11.443Z,92.10
2022-08-08T01:29:17.032Z,92.40
2022-08-08T01:32:52.592Z,92.50
2022-08-08T01:35:44.180Z,93.10
2022-08-08T01:38:41.585Z,93.00
2022-08-08T01:41:17.393Z,93.30
2022-08-08T01:43:55.580Z,93.40
2022-08-08T01:46:51.297Z,93.60
2022-08-08T01:49:37.616Z,93.80
2022-08-08T01:52:44.251Z,94.00
2022-08-08T01:56:27.161Z,94.20
2022-08-08T01:58:19.082Z,94.50
2022-08-08T02:01:15.812Z,94.80
2022-08-08T02:04:01.787Z,94.90
2022-08-08T02:06:51.891Z,95.00
2022-08-08T02:10:01.705Z,94.90
2022-08-08T02:12:24.885Z,94.70
2022-08-08T02:15:00.938Z,94.80
2022-08-08T02:17:43.432Z,94.90
2022-08-08T02:21:01.900Z,95.00
2022-08-08T02:23:18.593Z,95.10
2022-08-08T02:26:00.416Z,95.10
2022-08-08T02:28:48.535Z,95.20
2022-08-08T02:31:58.390Z,95.20
2022-08-08T02:35:07.432Z,95.40
2022-08-08T02:37:53.359Z,95.30
2022-08-08T02:40:38.759Z,95.40
2022-08-08T02:44:42.501Z,95.50
2022-08-08T02:46:46.913Z,95.60
2022-08-08T02:49:57.371Z,96.00
2022-08-08T02:52:50.331Z,95.80
2022-08-08T02:55:45.059Z,95.90
2022-08-08T02:58:51.010Z,96.30
2022-08-08T03:01:50.544Z,96.50
2022-08-08T03:05:02.421Z,96.50
2022-08-08T03:08:13.805Z,96.60
2022-08-08T03:12:02.060Z,96.40
2022-08-08T03:15:58.629Z,96.10
2022-08-08T03:17:42.473Z,96.00
2022-08-08T03:20:19.734Z,96.00
2022-08-08T03:22:56.044Z,96.00
2022-08-08T03:25:35.750Z,96.10
2022-08-08T03:28:08.424Z,96.20
2022-08-08T03:30:36.545Z,96.30
2022-08-08T03:33:55.135Z,96.40
2022-08-08T03:36:09.323Z,96.50
2022-08-08T03:38:57.604Z,96.70
2022-08-08T03:42:27.631Z,96.60
2022-08-08T03:44:25.716Z,96.60
2022-08-08T03:46:54.155Z,96.70
2022-08-08T03:49:58.024Z,96.80
2022-08-08T03:52:13.819Z,96.80
2022-08-08T03:55:01.755Z,96.90
2022-08-08T03:58:30.986Z,97.10
2022-08-08T04:00:21.862Z,97.30
2022-08-08T04:02:59.278Z,97.40
2022-08-08T04:05:29.596Z,97.60
2022-08-08T04:07:58.392Z,97.90
2022-08-08T04:10:32.092Z,97.90
2022-08-08T04:13:01.025Z,98.00
2022-08-08T04:15:54.676Z,98.00
2022-08-08T04:18:32.346Z,98.10
2022-08-08T04:21:00.878Z,98.10
2022-08-08T04:24:00.448Z,98.10
2022-08-08T04:26:18.149Z,98.10
2022-08-08T04:28:47.478Z,98.20
2022-08-08T04:31:30.645Z,98.10
2022-08-08T04:34:03.091Z,98.10
2022-08-08T04:36:32.308Z,98.10
2022-08-08T04:39:48.051Z,98.30
2022-08-08T04:41:49.609Z,98.50
2022-08-08T04:44:18.608Z,98.80
2022-08-08T04:46:48.907Z,98.90
2022-08-08T04:49:20.381Z,99.10
2022-08-08T04:51:57.849Z,99.20
2022-08-08T04:54:39.242Z,99.40
2022-08-08T04:57:11.806Z,99.40
2022-08-08T04:59:42.015Z,99.60
2022-08-08T05:02:10.497Z,99.40
2022-08-08T05:04:42.101Z,99.10
2022-08-08T05:07:14.850Z,99.10
2022-08-08T05:09:43.383Z,99.00
2022-08-08T05:12:31.090Z,98.90
2022-08-08T05:15:00.372Z,98.70
2022-08-08T05:17:53.924Z,98.70
2022-08-08T05:20:20.241Z,98.70
2022-08-08T05:22:50.177Z,98.60
2022-08-08T05:25:21.498Z,98.30
2022-08-08T05:27:50.881Z,98.10
2022-08-08T05:30:28.168Z,97.70
2022-08-08T05:32:56.397Z,97.70
2022-08-08T05:35:26.985Z,97.50
2022-08-08T05:38:01.041Z,97.40
2022-08-08T05:40:30.027Z,97.20
2022-08-08T05:43:38.379Z,96.90
2022-08-08T05:46:03.191Z,96.60
2022-08-08T05:48:34.577Z,96.20
2022-08-08T05:51:13.338Z,96.10
2022-08-08T05:53:56.141Z,95.80
2022-08-08T05:56:38.632Z,95.60
2022-08-08T05:59:59.838Z,95.40
2022-08-08T06:02:33.692Z,95.20
2022-08-08T06:05:06.802Z,95.10
2022-08-08T06:08:00.198Z,94.60
2022-08-08T06:10:32.966Z,93.70
2022-08-08T06:13:01.937Z,93.50
2022-08-08T06:15:50.460Z,93.40
2022-08-08T06:18:22.340Z,93.30
2022-08-08T06:20:56.407Z,93.30
2022-08-08T06:23:48.661Z,93.30
2022-08-08T06:26:43.626Z,93.10
2022-08-08T06:29:26.903Z,92.80
2022-08-08T06:32:10.561Z,92.60
2022-08-08T06:34:56.219Z,92.50
2022-08-08T06:37:40.388Z,92.30
2022-08-08T06:40:16.184Z,92.00
2022-08-08T06:42:52.994Z,91.80
2022-08-08T06:45:22.847Z,91.40
2022-08-08T06:48:00.971Z,91.20
2022-08-08T06:50:33.688Z,91.00
2022-08-08T06:53:09.762Z,90.80
2022-08-08T06:55:43.307Z,90.60
2022-08-08T06:58:11.394Z,90.30
2022-08-08T07:00:41.268Z,90.20
2022-08-08T07:03:51.946Z,90.00
2022-08-08T07:06:26.914Z,89.20
2022-08-08T07:09:03.673Z,88.60
2022-08-08T07:11:46.098Z,88.20
2022-08-08T07:14:19.287Z,87.70
2022-08-08T07:16:54.057Z,87.10
2022-08-08T07:19:34.206Z,86.30
2022-08-08T07:22:12.013Z,86.10
2022-08-08T07:24:52.866Z,85.80
2022-08-08T07:27:27.694Z,85.10
2022-08-08T07:30:16.886Z,84.70
2022-08-08T07:32:50.372Z,83.90
2022-08-08T07:35:21.173Z,83.80
2022-08-08T07:38:04.567Z,81.60
2022-08-08T07:40:40.076Z,81.10
2022-08-08T07:43:09.211Z,80.50
2022-08-08T07:46:04.764Z,79.70
2022-08-08T07:48:30.054Z,77.60
2022-08-08T07:51:00.884Z,77.50
2022-08-08T07:54:01.551Z,77.70
2022-08-08T07:56:35.545Z,77.10
2022-08-08T07:59:10.958Z,75.60
2022-08-08T08:02:35.302Z,74.20
2022-08-08T08:04:40.050Z,74.80
2022-08-08T08:07:11.946Z,72.60
2022-08-08T08:09:42.272Z,72.60
2022-08-08T08:12:26.467Z,72.60
2022-08-08T08:15:05.139Z,71.90
2022-08-08T08:17:44.907Z,70.30
2022-08-08T08:20:18.637Z,70.30
2022-08-08T08:22:47.794Z,68.80
2022-08-08T08:25:17.002Z,68.30
2022-08-08T08:28:03.411Z,69.00
2022-08-08T08:30:31.603Z,69.40
2022-08-08T08:32:59.462Z,69.10
2022-08-08T08:35:29.934Z,67.40
2022-08-08T08:38:17.712Z,66.60
2022-08-08T08:40:51.203Z,66.70
2022-08-08T08:43:19.794Z,66.90
2022-08-08T08:45:49.605Z,66.00
2022-08-08T08:48:26.217Z,65.00
2022-08-08T08:50:56.196Z,63.50
2022-08-08T08:53:27.213Z,63.30
2022-08-08T08:56:18.200Z,61.60
2022-08-08T08:58:53.173Z,60.50
2022-08-08T09:01:26.819Z,60.70
2022-08-08T09:04:00.546Z,59.90
2022-08-08T09:06:33.500Z,60.10
2022-08-08T09:09:26.066Z,59.50
2022-08-08T09:12:07.561Z,58.60
2022-08-08T09:14:42.089Z,57.90
2022-08-08T09:17:17.284Z,57.10
2022-08-08T09:22:01.476Z,57.50
2022-08-08T09:22:34.429Z,57.90
2022-08-08T09:25:05.236Z,57.90
2022-08-08T09:27:55.897Z,57.80
2022-08-08T09:30:26.852Z,57.50
2022-08-08T09:33:12.247Z,57.00
2022-08-08T09:35:49.305Z,57.10
2022-08-08T09:38:53.244Z,56.30
2022-08-08T09:42:14.613Z,56.40
2022-08-08T09:44:36.388Z,56.20
2022-08-08T09:47:25.906Z,56.50
2022-08-08T09:50:04.729Z,55.90
2022-08-08T09:53:05.776Z,55.30
2022-08-08T09:55:51.350Z,55.40
2022-08-08T09:58:25.711Z,55.90
2022-08-08T10:00:57.894Z,55.60
2022-08-08T10:03:31.496Z,55.60
2022-08-08T10:06:00.908Z,55.30
2022-08-08T10:08:32.766Z,55.50
2022-08-08T10:11:00.819Z,55.30
2022-08-08T10:13:35.818Z,56.10
2022-08-08T10:16:06.460Z,55.90
2022-08-08T10:18:39.494Z,55.70
2022-08-08T10:21:25.031Z,55.40
2022-08-08T10:23:58.570Z,55.30
2022-08-08T10:26:52.006Z,54.90
2022-08-08T10:29:25.173Z,54.00
2022-08-08T10:32:16.305Z,52.80
2022-08-08T10:34:58.471Z,52.90
2022-08-08T10:37:30.692Z,53.80
2022-08-08T10:40:07.065Z,53.30
2022-08-08T10:42:37.713Z,52.80
2022-08-08T10:45:16.009Z,53.20
2022-08-08T10:47:48.624Z,52.90
2022-08-08T10:50:23.484Z,53.10
2022-08-08T10:52:51.863Z,52.80
2022-08-08T10:55:41.406Z,52.60
2022-08-08T10:58:11.873Z,52.50
2022-08-08T11:00:53.106Z,50.70
2022-08-08T11:04:01.368Z,51.20
2022-08-08T11:06:31.761Z,50.00
2022-08-08T11:09:15.004Z,50.00
2022-08-08T11:12:05.410Z,49.70
2022-08-08T11:14:35.889Z,49.40
2022-08-08T11:17:07.081Z,49.20
2022-08-08T11:19:46.667Z,49.30
2022-08-08T11:22:26.836Z,49.00
2022-08-08T11:25:00.080Z,48.70
2022-08-08T11:27:37.330Z,48.50
2022-08-08T11:30:20.499Z,49.00
2022-08-08T11:32:55.896Z,49.00
2022-08-08T11:35:38.396Z,49.20
2022-08-08T11:38:35.798Z,49.70
2022-08-08T11:40:58.662Z,49.10
2022-08-08T11:43:39.573Z,49.20
2022-08-08T11:46:14.366Z,48.80
2022-08-08T11:48:48.663Z,48.00
2022-08-08T11:51:30.519Z,47.80
2022-08-08T11:54:27.025Z,48.30
2022-08-08T11:56:56.166Z,48.70
2022-08-08T12:00:00.819Z,48.20
2022-08-08T12:02:32.192Z,47.90
2022-08-08T12:05:07.222Z,48.30
2022-08-08T12:07:46.850Z,48.60
2022-08-08T12:10:20.173Z,48.40
2022-08-08T12:12:50.003Z,48.20
2022-08-08T12:15:41.857Z,47.50
2022-08-08T12:18:17.943Z,47.60
2022-08-08T12:20:50.946Z,47.90
2022-08-08T12:23:43.463Z,47.60
2022-08-08T12:26:28.355Z,47.30
2022-08-08T12:29:19.639Z,48.00
2022-08-08T12:31:53.820Z,48.00
2022-08-08T12:34:36.350Z,47.90
2022-08-08T12:37:08.324Z,47.20
2022-08-08T12:40:00.895Z,46.50
2022-08-08T12:42:31.813Z,46.90
2022-08-08T12:45:53.672Z,45.80
2022-08-08T12:48:10.259Z,46.20
2022-08-08T12:50:54.522Z,46.00
2022-08-08T12:53:30.275Z,45.90
2022-08-08T12:56:17.477Z,45.90
2022-08-08T12:58:48.893Z,45.90
2022-08-08T13:01:24.394Z,44.40
2022-08-08T13:04:12.809Z,45.60
2022-08-08T13:06:54.893Z,46.10
2022-08-08T13:09:57.494Z,46.00
2022-08-08T13:12:29.554Z,45.90
2022-08-08T13:14:59.139Z,46.00
2022-08-08T13:18:09.485Z,45.70
2022-08-08T13:20:18.491Z,45.90
2022-08-08T13:22:47.443Z,45.40
2022-08-08T13:25:17.581Z,45.70
2022-08-08T13:27:53.226Z,46.20
2022-08-08T13:30:26.158Z,46.50
2022-08-08T13:32:56.272Z,46.10
2022-08-08T13:35:29.486Z,46.00
2022-08-08T13:38:08.404Z,46.20
2022-08-08T13:40:44.928Z,45.90
2022-08-08T13:43:16.093Z,46.50
2022-08-08T13:45:47.177Z,45.80
2022-08-08T13:48:17.066Z,45.70
2022-08-08T13:50:52.488Z,45.90
2022-08-08T13:53:27.934Z,45.90
2022-08-08T13:56:02.315Z,45.10
2022-08-08T13:58:30.414Z,45.40
2022-08-08T14:00:58.409Z,45.00
2022-08-08T14:03:52.288Z,44.80
2022-08-08T14:06:33.737Z,45.50
2022-08-08T14:09:25.278Z,45.50
2022-08-08T14:11:52.052Z,45.00
2022-08-08T14:14:27.079Z,44.90
2022-08-08T14:16:55.553Z,44.60
2022-08-08T14:19:58.224Z,45.00
2022-08-08T14:22:23.341Z,44.90
2022-08-08T14:24:54.826Z,45.20
2022-08-08T14:27:29.681Z,45.20
2022-08-08T14:30:08.226Z,45.40
2022-08-08T14:32:47.809Z,45.40
2022-08-08T14:35:22.440Z,45.60
2022-08-08T14:37:59.825Z,45.40
2022-08-08T14:40:30.995Z,45.90
2022-08-08T14:43:01.798Z,45.70
2022-08-08T14:46:02.916Z,45.80
2022-08-08T14:48:41.557Z,45.40
2022-08-08T14:51:20.982Z,45.40
2022-08-08T14:53:55.112Z,45.40
2022-08-08T14:56:25.592Z,45.30
2022-08-08T14:58:55.227Z,45.30
2022-08-08T15:01:40.655Z,45.70
2022-08-08T15:04:10.330Z,45.70
2022-08-08T15:06:39.042Z,45.70
2022-08-08T15:09:10.240Z,45.00
2022-08-08T15:11:46.134Z,45.20
2022-08-08T15:14:15.852Z,45.40
2022-08-08T15:16:44.533Z,45.80
2022-08-08T15:19:14.973Z,46.10
2022-08-08T15:21:44.512Z,45.70
2022-08-08T15:24:14.308Z,45.60
2022-08-08T15:26:52.495Z,45.70
2022-08-08T15:29:24.537Z,45.80
2022-08-08T15:32:03.140Z,45.60
2022-08-08T15:34:41.426Z,45.70
2022-08-08T15:37:09.297Z,46.40
2022-08-08T15:39:39.456Z,46.50
2022-08-08T15:42:13.066Z,46.60
2022-08-08T15:44:47.241Z,46.50
2022-08-08T15:47:19.158Z,46.30
2022-08-08T15:49:48.407Z,45.50
2022-08-08T15:52:18.024Z,45.80
2022-08-08T15:54:52.314Z,45.90
2022-08-08T15:57:21.291Z,45.80
2022-08-08T16:00:06.657Z,46.00
2022-08-08T16:02:50.191Z,46.20
2022-08-08T16:05:21.233Z,46.10
2022-08-08T16:07:52.413Z,45.80
2022-08-08T16:13:10.364Z,46.10
2022-08-08T16:13:29.193Z,46.30
2022-08-08T16:16:03.274Z,46.30
2022-08-08T16:18:40.647Z,46.40
2022-08-08T16:21:26.678Z,46.40
2022-08-08T16:23:55.360Z,46.30
2022-08-08T16:26:33.728Z,46.40
2022-08-08T16:29:08.657Z,46.50
2022-08-08T16:31:41.764Z,46.50
2022-08-08T16:34:10.619Z,46.60
2022-08-08T16:36:38.911Z,46.70
2022-08-08T16:39:27.867Z,46.80
2022-08-08T16:42:01.191Z,46.90
2022-08-08T16:44:33.507Z,46.90
2022-08-08T16:47:40.367Z,47.00
2022-08-08T16:50:14.215Z,47.20
2022-08-08T16:55:02.362Z,47.50
2022-08-08T16:55:55.034Z,47.80
2022-08-08T16:58:20.841Z,48.00
2022-08-08T17:00:51.447Z,48.30
2022-08-08T17:03:24.778Z,48.50
2022-08-08T17:06:37.526Z,48.70
2022-08-08T17:08:57.785Z,48.70
2022-08-08T17:11:28.257Z,48.80
2022-08-08T17:14:17.709Z,49.20
2022-08-08T17:16:57.587Z,49.60
2022-08-08T17:19:28.735Z,49.70
2022-08-08T17:21:57.628Z,49.90
2022-08-08T17:24:30.321Z,49.90
2022-08-08T17:26:59.140Z,50.00
2022-08-08T17:29:27.353Z,50.00
2022-08-08T17:31:55.240Z,50.20
2022-08-08T17:34:53.341Z,50.30
2022-08-08T17:37:15.042Z,50.50
2022-08-08T17:40:03.138Z,50.50
2022-08-08T17:42:30.952Z,50.60
2022-08-08T17:44:58.885Z,51.10
2022-08-08T17:47:28.272Z,51.40
2022-08-08T17:50:07.174Z,51.60
2022-08-08T17:52:37.405Z,51.70
2022-08-08T17:56:03.449Z,51.70
2022-08-08T17:57:55.139Z,52.00
2022-08-08T18:00:30.265Z,52.10
2022-08-08T18:03:07.816Z,52.30
2022-08-08T18:05:49.103Z,52.40
2022-08-08T18:08:24.455Z,52.80
2022-08-08T18:11:07.213Z,52.80
2022-08-08T18:13:42.048Z,52.80
2022-08-08T18:16:11.237Z,52.90
2022-08-08T18:18:42.644Z,53.10
2022-08-08T18:21:25.157Z,53.30
2022-08-08T18:24:02.961Z,53.40
2022-08-08T18:26:30.858Z,53.60
2022-08-08T18:29:01.675Z,53.70
2022-08-08T18:31:29.683Z,54.00
2022-08-08T18:34:11.618Z,54.20
2022-08-08T18:36:46.144Z,54.10
2022-08-08T18:39:28.280Z,54.30
2022-08-08T18:42:03.813Z,54.20
2022-08-08T18:44:34.654Z,54.30
2022-08-08T18:47:04.434Z,54.50
2022-08-08T18:49:57.855Z,54.50
2022-08-08T18:52:22.536Z,54.60
2022-08-08T18:55:00.167Z,54.70
2022-08-08T18:57:40.982Z,55.00
2022-08-08T19:00:16.642Z,55.30
2022-08-08T19:02:55.291Z,55.40
2022-08-08T19:05:32.039Z,55.80
2022-08-08T19:08:25.268Z,55.90
2022-08-08T19:10:59.667Z,55.60
2022-08-08T19:13:53.857Z,55.40
2022-08-08T19:16:19.384Z,55.70
2022-08-08T19:18:53.237Z,56.20
2022-08-08T19:21:30.049Z,56.30
2022-08-08T19:24:01.239Z,56.70
2022-08-08T19:26:35.547Z,57.60
2022-08-08T19:29:05.907Z,58.50
2022-08-08T19:31:35.754Z,58.70
2022-08-08T19:34:36.061Z,58.50
2022-08-08T19:36:53.562Z,58.40
2022-08-08T19:39:23.767Z,58.30
2022-08-08T19:41:52.950Z,58.10
2022-08-08T19:44:26.690Z,58.10
2022-08-08T19:47:04.414Z,58.20
2022-08-08T19:49:37.623Z,58.20
2022-08-08T19:52:07.101Z,58.20
2022-08-08T19:54:35.018Z,58.50
2022-08-08T19:57:07.787Z,58.60
2022-08-08T19:59:35.877Z,59.00
2022-08-08T20:02:05.716Z,59.30
2022-08-08T20:04:34.349Z,59.50
2022-08-08T20:07:03.574Z,59.60
2022-08-08T20:09:55.988Z,59.60
2022-08-08T20:12:31.967Z,59.60
2022-08-08T20:15:14.322Z,59.60
2022-08-08T20:17:45.451Z,59.70
2022-08-08T20:20:16.063Z,59.60
2022-08-08T20:22:53.927Z,59.80
2022-08-08T20:25:24.687Z,60.70
2022-08-08T20:27:56.326Z,60.20
2022-08-08T20:30:52.900Z,60.50
2022-08-08T20:35:57.509Z,61.30
2022-08-08T20:38:31.903Z,61.60
2022-08-08T20:41:05.897Z,62.00
2022-08-08T20:43:49.284Z,62.20
2022-08-08T20:46:20.351Z,62.40
2022-08-08T20:48:50.879Z,62.30
2022-08-08T20:51:20.828Z,62.10
2022-08-08T20:53:59.288Z,62.30
2022-08-08T20:56:35.342Z,62.20
2022-08-08T20:59:08.703Z,62.00
2022-08-08T21:01:44.285Z,62.00
2022-08-08T21:04:27.338Z,61.80
2022-08-08T21:06:56.343Z,61.70
2022-08-08T21:09:31.737Z,61.80
2022-08-08T21:12:12.794Z,61.90
2022-08-08T21:14:42.230Z,61.90
2022-08-08T21:17:17.182Z,62.10
2022-08-08T21:19:47.575Z,62.30
2022-08-08T21:22:16.004Z,62.20
2022-08-08T21:24:52.951Z,62.20
2022-08-08T21:28:05.038Z,62.20
2022-08-08T21:30:19.082Z,62.50
2022-08-08T21:32:51.842Z,62.60
2022-08-08T21:36:17.151Z,62.80
2022-08-08T21:38:16.372Z,63.00
2022-08-08T21:40:54.633Z,63.10
2022-08-08T21:43:23.166Z,63.20
2022-08-08T21:48:07.086Z,63.60
2022-08-08T21:48:44.728Z,64.00
2022-08-08T21:51:20.396Z,64.60
2022-08-08T21:54:30.895Z,65.00
2022-08-08T21:56:55.795Z,66.10
2022-08-08T21:59:23.681Z,66.00
2022-08-08T22:02:01.095Z,66.20
2022-08-08T22:04:32.379Z,66.80
2022-08-08T22:07:00.561Z,67.20
2022-08-08T22:09:37.486Z,67.20
2022-08-08T22:12:15.029Z,67.30
2022-08-08T22:14:49.841Z,68.10
2022-08-08T22:17:19.533Z,68.50
2022-08-08T22:20:12.099Z,68.80
2022-08-08T22:22:38.037Z,69.10
2022-08-08T22:25:17.734Z,69.00
2022-08-08T22:28:04.612Z,69.00
2022-08-08T22:30:42.429Z,69.20
2022-08-08T22:33:22.153Z,69.40
2022-08-08T22:36:04.783Z,69.50
2022-08-08T22:38:48.235Z,69.80
2022-08-08T22:41:20.998Z,69.80
2022-08-08T22:44:02.890Z,70.10
2022-08-08T22:46:34.321Z,70.30
2022-08-08T22:49:09.274Z,70.50
2022-08-08T22:51:45.993Z,70.70
2022-08-08T22:54:30.074Z,70.90
2022-08-08T22:57:02.162Z,71.20
2022-08-08T22:59:48.175Z,71.50
2022-08-08T23:02:28.469Z,71.80
2022-08-08T23:04:58.441Z,72.10
2022-08-08T23:07:49.323Z,72.20
2022-08-08T23:10:21.335Z,72.60
2022-08-08T23:12:51.612Z,72.70
2022-08-08T23:16:39.818Z,73.10
2022-08-08T23:18:11.507Z,73.80
2022-08-08T23:20:41.275Z,74.20
2022-08-08T23:23:12.407Z,74.60
2022-08-08T23:25:47.844Z,74.80
2022-08-08T23:28:17.747Z,75.00
2022-08-08T23:30:46.087Z,75.20
2022-08-08T23:33:19.041Z,75.20
2022-08-08T23:36:06.711Z,75.10
2022-08-08T23:38:35.628Z,75.10
2022-08-08T23:41:05.164Z,75.30
2022-08-08T23:43:45.867Z,75.30
2022-08-08T23:49:03.892Z,75.40
2022-08-08T23:49:20.407Z,75.40
2022-08-08T23:52:07.173Z,75.40
2022-08-08T23:54:43.850Z,75.50
2022-08-08T23:57:38.764Z,75.50
